Atwood, California
Current Conditions -  °F | °C
As of 9:53 PM on Tuesday 25 Nov 2014 (Local Time) from KFUL Reporting Station
Clear Clear  
Wind Chill: 58°   Ceiling: Unl
Heat Index: 58°   Visibility: 10mi
Dew Point: 26°   Wind: 0mph
Humidity: 30%   Direction: NA
Pressure: 30.28"   Gusts: NA
Location:  33.87°N, 117.83°W
Report Text: KFUL 260553Z 00000KT 10SM CLR 14/M03 A3028 RMK AO2 SLP251 T01441033 10267 20133 51002
Loading
Personal Weather Stations






























Interactive Weather Map New forecast layout! Learn more

10-Day Weather Forecast

Advertisements
Track Severe Weather on mobile